sensor_id;sensor_type;location;lat;lon;timestamp;P1;durP1;ratioP1;P2;durP2;ratioP2
73315;SDS011;61545;53.726;-0.444;2023-08-12T00:01:24;9.6;;;2.1;;
73315;SDS011;61545;53.726;-0.444;2023-08-12T00:06:24;9.6;;;2.1;;
73315;SDS011;61545;53.726;-0.444;2023-08-12T00:11:24;10.7;;;2.4;;
73315;SDS011;61545;53.726;-0.444;2023-08-12T00:16:24;8.4;;;2.3;;
73315;SDS011;61545;53.726;-0.444;2023-08-12T00:21:25;9.7;;;2.6;;
73315;SDS011;61545;53.726;-0.444;2023-08-12T00:26:24;10.6;;;2.7;;
73315;SDS011;61545;53.726;-0.444;2023-08-12T00:31:24;13.7;;;2.8;;
73315;SDS011;61545;53.726;-0.444;2023-08-12T00:36:24;13.7;;;2.8;;
73315;SDS011;61545;53.726;-0.444;2023-08-12T00:41:24;12.0;;;2.5;;
73315;SDS011;61545;53.726;-0.444;2023-08-12T00:46:24;13.2;;;2.5;;
73315;SDS011;61545;53.726;-0.444;2023-08-12T00:51:24;11.3;;;2.6;;
73315;SDS011;61545;53.726;-0.444;2023-08-12T00:56:25;8.5;;;2.2;;
73315;SDS011;61545;53.726;-0.444;2023-08-12T01:01:24;14.3;;;3;;
73315;SDS011;61545;53.726;-0.444;2023-08-12T01:06:24;14.3;;;3;;
73315;SDS011;61545;53.726;-0.444;2023-08-12T01:11:36;12.0;;;2.9;;
73315;SDS011;61545;53.726;-0.444;2023-08-12T01:16:24;17.6;;;3.1;;
73315;SDS011;61545;53.726;-0.444;2023-08-12T01:21:24;17.2;;;3.7;;
73315;SDS011;61545;53.726;-0.444;2023-08-12T01:26:24;14.7;;;3.3;;
73315;SDS011;61545;53.726;-0.444;2023-08-12T01:31:27;15.3;;;3.3;;
73315;SDS011;61545;53.726;-0.444;2023-08-12T01:36:24;15.3;;;3.3;;
73315;SDS011;61545;53.726;-0.444;2023-08-12T01:41:24;18.5;;;3.5;;
73315;SDS011;61545;53.726;-0.444;2023-08-12T01:46:24;17.6;;;3.5;;
73315;SDS011;61545;53.726;-0.444;2023-08-12T01:51:24;18.1;;;3.5;;
73315;SDS011;61545;53.726;-0.444;2023-08-12T01:56:24;16.1;;;3.7;;
73315;SDS011;61545;53.726;-0.444;2023-08-12T02:01:24;12.5;;;3.5;;
73315;SDS011;61545;53.726;-0.444;2023-08-12T02:06:25;12.5;;;3.5;;
73315;SDS011;61545;53.726;-0.444;2023-08-12T02:11:24;11.2;;;2.9;;
73315;SDS011;61545;53.726;-0.444;2023-08-12T02:16:24;18.2;;;3.2;;
73315;SDS011;61545;53.726;-0.444;2023-08-12T02:21:24;13.9;;;3.3;;
73315;SDS011;61545;53.726;-0.444;2023-08-12T02:26:24;12.5;;;2.7;;
73315;SDS011;61545;53.726;-0.444;2023-08-12T02:31:24;16.8;;;2.7;;
73315;SDS011;61545;53.726;-0.444;2023-08-12T02:36:25;16.8;;;2.7;;
73315;SDS011;61545;53.726;-0.444;2023-08-12T02:41:24;10.4;;;2.8;;
73315;SDS011;61545;53.726;-0.444;2023-08-12T02:46:24;12.8;;;3;;
73315;SDS011;61545;53.726;-0.444;2023-08-12T02:51:24;13.3;;;2.6;;
73315;SDS011;61545;53.726;-0.444;2023-08-12T02:56:24;22.3;;;3.1;;
73315;SDS011;61545;53.726;-0.444;2023-08-12T03:01:24;15.8;;;3.3;;
73315;SDS011;61545;53.726;-0.444;2023-08-12T03:06:24;15.8;;;3.3;;
73315;SDS011;61545;53.726;-0.444;2023-08-12T03:11:24;15.1;;;3.3;;
73315;SDS011;61545;53.726;-0.444;2023-08-12T03:16:24;17.1;;;3.5;;
73315;SDS011;61545;53.726;-0.444;2023-08-12T03:21:24;16.2;;;3.5;;
73315;SDS011;61545;53.726;-0.444;2023-08-12T03:26:24;16.0;;;3;;
73315;SDS011;61545;53.726;-0.444;2023-08-12T03:31:24;15.7;;;3.3;;
73315;SDS011;61545;53.726;-0.444;2023-08-12T03:36:24;15.7;;;3.3;;
73315;SDS011;61545;53.726;-0.444;2023-08-12T03:41:24;17.1;;;3.8;;
73315;SDS011;61545;53.726;-0.444;2023-08-12T03:46:24;14.5;;;3.6;;
73315;SDS011;61545;53.726;-0.444;2023-08-12T03:51:24;14.9;;;3.2;;
73315;SDS011;61545;53.726;-0.444;2023-08-12T03:56:24;16.9;;;3.7;;
73315;SDS011;61545;53.726;-0.444;2023-08-12T04:01:24;19.3;;;3.2;;
73315;SDS011;61545;53.726;-0.444;2023-08-12T04:06:24;19.3;;;3.2;;
73315;SDS011;61545;53.726;-0.444;2023-08-12T04:11:24;8.8;;;2.7;;
73315;SDS011;61545;53.726;-0.444;2023-08-12T04:16:24;11.1;;;2.9;;
73315;SDS011;61545;53.726;-0.444;2023-08-12T04:21:24;13.3;;;3.3;;
73315;SDS011;61545;53.726;-0.444;2023-08-12T04:26:24;11.6;;;3.1;;
73315;SDS011;61545;53.726;-0.444;2023-08-12T04:31:24;12.7;;;3;;
73315;SDS011;61545;53.726;-0.444;2023-08-12T04:36:24;12.7;;;3;;
73315;SDS011;61545;53.726;-0.444;2023-08-12T04:41:24;10.1;;;2.9;;
73315;SDS011;61545;53.726;-0.444;2023-08-12T04:46:24;12.3;;;3.3;;
73315;SDS011;61545;53.726;-0.444;2023-08-12T04:51:24;16.8;;;3;;
73315;SDS011;61545;53.726;-0.444;2023-08-12T04:56:24;11.8;;;3;;
73315;SDS011;61545;53.726;-0.444;2023-08-12T05:01:24;9.6;;;2.8;;
73315;SDS011;61545;53.726;-0.444;2023-08-12T05:06:24;9.6;;;2.8;;
73315;SDS011;61545;53.726;-0.444;2023-08-12T05:11:24;12.6;;;3.7;;
73315;SDS011;61545;53.726;-0.444;2023-08-12T05:16:24;12.5;;;3.1;;
73315;SDS011;61545;53.726;-0.444;2023-08-12T05:21:24;15.3;;;3.2;;
73315;SDS011;61545;53.726;-0.444;2023-08-12T05:26:24;10.4;;;3.1;;
73315;SDS011;61545;53.726;-0.444;2023-08-12T05:31:24;8.0;;;2.7;;
73315;SDS011;61545;53.726;-0.444;2023-08-12T05:36:24;8.0;;;2.7;;
73315;SDS011;61545;53.726;-0.444;2023-08-12T05:41:24;11.6;;;2.5;;
73315;SDS011;61545;53.726;-0.444;2023-08-12T05:46:24;9.7;;;2.7;;
73315;SDS011;61545;53.726;-0.444;2023-08-12T05:51:24;13.1;;;3;;
73315;SDS011;61545;53.726;-0.444;2023-08-12T05:56:24;12.0;;;2.8;;
73315;SDS011;61545;53.726;-0.444;2023-08-12T06:01:24;14.1;;;2.9;;
73315;SDS011;61545;53.726;-0.444;2023-08-12T06:06:24;14.1;;;2.9;;
73315;SDS011;61545;53.726;-0.444;2023-08-12T06:11:24;11.7;;;2.8;;
73315;SDS011;61545;53.726;-0.444;2023-08-12T06:16:24;13.4;;;3;;
73315;SDS011;61545;53.726;-0.444;2023-08-12T06:21:24;13.6;;;3;;
73315;SDS011;61545;53.726;-0.444;2023-08-12T06:26:24;11.7;;;2.9;;
73315;SDS011;61545;53.726;-0.444;2023-08-12T06:31:24;11.0;;;2.8;;
73315;SDS011;61545;53.726;-0.444;2023-08-12T06:36:24;11.0;;;2.8;;
73315;SDS011;61545;53.726;-0.444;2023-08-12T06:41:24;15.7;;;3.1;;
73315;SDS011;61545;53.726;-0.444;2023-08-12T06:46:24;8.6;;;2.3;;
73315;SDS011;61545;53.726;-0.444;2023-08-12T06:51:24;13.2;;;3.1;;
73315;SDS011;61545;53.726;-0.444;2023-08-12T06:56:24;14.0;;;2.9;;
73315;SDS011;61545;53.726;-0.444;2023-08-12T07:01:24;19.7;;;3;;
73315;SDS011;61545;53.726;-0.444;2023-08-12T07:06:24;19.7;;;3;;
73315;SDS011;61545;53.726;-0.444;2023-08-12T07:11:24;11.4;;;2.8;;
73315;SDS011;61545;53.726;-0.444;2023-08-12T07:16:24;10.2;;;2.8;;
73315;SDS011;61545;53.726;-0.444;2023-08-12T07:21:24;17.0;;;3.5;;
73315;SDS011;61545;53.726;-0.444;2023-08-12T07:26:24;9.5;;;2.9;;
73315;SDS011;61545;53.726;-0.444;2023-08-12T07:31:24;9.5;;;2.9;;
73315;SDS011;61545;53.726;-0.444;2023-08-12T07:36:24;9.7;;;2.7;;
73315;SDS011;61545;53.726;-0.444;2023-08-12T07:41:24;11.4;;;3;;
73315;SDS011;61545;53.726;-0.444;2023-08-12T07:46:24;11.6;;;2.4;;
73315;SDS011;61545;53.726;-0.444;2023-08-12T07:51:24;7.7;;;2.1;;
73315;SDS011;61545;53.726;-0.444;2023-08-12T07:56:24;8.6;;;2.8;;
73315;SDS011;61545;53.726;-0.444;2023-08-12T08:01:24;8.6;;;2.8;;
73315;SDS011;61545;53.726;-0.444;2023-08-12T08:06:24;10.7;;;3.1;;
73315;SDS011;61545;53.726;-0.444;2023-08-12T08:11:24;11.9;;;3.3;;
73315;SDS011;61545;53.726;-0.444;2023-08-12T08:16:24;11.3;;;2.7;;
73315;SDS011;61545;53.726;-0.444;2023-08-12T08:21:24;10.3;;;2.9;;
73315;SDS011;61545;53.726;-0.444;2023-08-12T08:26:24;9.6;;;2.8;;
73315;SDS011;61545;53.726;-0.444;2023-08-12T08:31:24;9.6;;;2.8;;
73315;SDS011;61545;53.726;-0.444;2023-08-12T08:36:24;9.5;;;2.6;;
73315;SDS011;61545;53.726;-0.444;2023-08-12T08:41:24;12.0;;;3;;
73315;SDS011;61545;53.726;-0.444;2023-08-12T08:46:24;12.8;;;3.1;;
73315;SDS011;61545;53.726;-0.444;2023-08-12T08:51:24;13.0;;;3.2;;
73315;SDS011;61545;53.726;-0.444;2023-08-12T08:56:24;12.9;;;3.1;;
73315;SDS011;61545;53.726;-0.444;2023-08-12T09:01:25;12.9;;;3.1;;
73315;SDS011;61545;53.726;-0.444;2023-08-12T09:06:25;16.2;;;3.3;;
73315;SDS011;61545;53.726;-0.444;2023-08-12T09:11:24;12.4;;;3.1;;
73315;SDS011;61545;53.726;-0.444;2023-08-12T09:16:24;12.2;;;2.7;;
73315;SDS011;61545;53.726;-0.444;2023-08-12T09:21:24;12.8;;;3.1;;
73315;SDS011;61545;53.726;-0.444;2023-08-12T09:26:24;10.1;;;3.2;;
73315;SDS011;61545;53.726;-0.444;2023-08-12T09:31:26;10.1;;;3.2;;
73315;SDS011;61545;53.726;-0.444;2023-08-12T09:36:27;11.1;;;2.8;;
73315;SDS011;61545;53.726;-0.444;2023-08-12T09:41:25;9.9;;;2.5;;
73315;SDS011;61545;53.726;-0.444;2023-08-12T09:46:24;8.4;;;2.5;;
73315;SDS011;61545;53.726;-0.444;2023-08-12T09:51:24;11.5;;;2.7;;
73315;SDS011;61545;53.726;-0.444;2023-08-12T09:56:24;10.7;;;2.6;;
73315;SDS011;61545;53.726;-0.444;2023-08-12T10:01:24;10.7;;;2.6;;
73315;SDS011;61545;53.726;-0.444;2023-08-12T10:06:24;18.3;;;3.2;;
73315;SDS011;61545;53.726;-0.444;2023-08-12T10:11:24;7.2;;;2.3;;
73315;SDS011;61545;53.726;-0.444;2023-08-12T10:16:24;12.4;;;2.8;;
73315;SDS011;61545;53.726;-0.444;2023-08-12T10:21:24;10.4;;;2.2;;
73315;SDS011;61545;53.726;-0.444;2023-08-12T10:26:25;12.3;;;2.6;;
73315;SDS011;61545;53.726;-0.444;2023-08-12T10:31:24;12.3;;;2.6;;
73315;SDS011;61545;53.726;-0.444;2023-08-12T10:36:25;7.6;;;2.2;;
73315;SDS011;61545;53.726;-0.444;2023-08-12T10:41:24;9.1;;;2.1;;
73315;SDS011;61545;53.726;-0.444;2023-08-12T10:46:29;12.0;;;2.3;;
73315;SDS011;61545;53.726;-0.444;2023-08-12T10:51:39;7.9;;;2.1;;
73315;SDS011;61545;53.726;-0.444;2023-08-12T10:56:24;7.0;;;2;;
73315;SDS011;61545;53.726;-0.444;2023-08-12T11:01:24;7.0;;;2;;
73315;SDS011;61545;53.726;-0.444;2023-08-12T11:06:26;8.9;;;2.4;;
73315;SDS011;61545;53.726;-0.444;2023-08-12T11:11:24;12.4;;;2.4;;
73315;SDS011;61545;53.726;-0.444;2023-08-12T11:16:31;8.1;;;2;;
73315;SDS011;61545;53.726;-0.444;2023-08-12T11:21:24;11.1;;;2.6;;
73315;SDS011;61545;53.726;-0.444;2023-08-12T11:26:24;7.6;;;2.3;;
73315;SDS011;61545;53.726;-0.444;2023-08-12T11:31:24;7.6;;;2.3;;
73315;SDS011;61545;53.726;-0.444;2023-08-12T11:36:24;9.7;;;2.5;;
73315;SDS011;61545;53.726;-0.444;2023-08-12T11:41:24;7.5;;;1.9;;
73315;SDS011;61545;53.726;-0.444;2023-08-12T11:46:24;5.6;;;1.8;;
73315;SDS011;61545;53.726;-0.444;2023-08-12T11:51:24;9.4;;;2.1;;
73315;SDS011;61545;53.726;-0.444;2023-08-12T11:56:24;9.2;;;2;;
73315;SDS011;61545;53.726;-0.444;2023-08-12T12:01:24;9.2;;;2;;
73315;SDS011;61545;53.726;-0.444;2023-08-12T12:06:29;6.6;;;2;;
73315;SDS011;61545;53.726;-0.444;2023-08-12T12:11:24;13.4;;;2.5;;
73315;SDS011;61545;53.726;-0.444;2023-08-12T12:16:24;8.3;;;2.1;;
73315;SDS011;61545;53.726;-0.444;2023-08-12T12:21:24;8.6;;;1.8;;
73315;SDS011;61545;53.726;-0.444;2023-08-12T12:26:24;6.8;;;2;;
73315;SDS011;61545;53.726;-0.444;2023-08-12T12:31:24;6.8;;;2;;
73315;SDS011;61545;53.726;-0.444;2023-08-12T12:36:24;8.6;;;2.1;;
73315;SDS011;61545;53.726;-0.444;2023-08-12T12:41:24;8.7;;;2;;
73315;SDS011;61545;53.726;-0.444;2023-08-12T12:46:24;6.2;;;2;;
73315;SDS011;61545;53.726;-0.444;2023-08-12T12:51:24;10.2;;;2.1;;
73315;SDS011;61545;53.726;-0.444;2023-08-12T12:56:24;6.3;;;1.7;;
73315;SDS011;61545;53.726;-0.444;2023-08-12T13:01:24;6.3;;;1.7;;
73315;SDS011;61545;53.726;-0.444;2023-08-12T13:06:25;8.2;;;2;;
73315;SDS011;61545;53.726;-0.444;2023-08-12T13:11:24;5.9;;;1.5;;
73315;SDS011;61545;53.726;-0.444;2023-08-12T13:16:24;8.6;;;1.5;;
73315;SDS011;61545;53.726;-0.444;2023-08-12T13:21:24;7.8;;;1.3;;
73315;SDS011;61545;53.726;-0.444;2023-08-12T13:26:24;4.1;;;1.2;;
73315;SDS011;61545;53.726;-0.444;2023-08-12T13:31:24;4.1;;;1.2;;
73315;SDS011;61545;53.726;-0.444;2023-08-12T13:36:24;4.9;;;1.2;;
73315;SDS011;61545;53.726;-0.444;2023-08-12T13:41:24;4.0;;;1.4;;
73315;SDS011;61545;53.726;-0.444;2023-08-12T13:46:24;7.5;;;1.8;;
73315;SDS011;61545;53.726;-0.444;2023-08-12T13:51:24;6.2;;;1.4;;
73315;SDS011;61545;53.726;-0.444;2023-08-12T13:56:24;8.1;;;1.5;;
73315;SDS011;61545;53.726;-0.444;2023-08-12T14:01:24;8.1;;;1.5;;
73315;SDS011;61545;53.726;-0.444;2023-08-12T14:06:24;4.5;;;1.2;;
73315;SDS011;61545;53.726;-0.444;2023-08-12T14:11:24;4.2;;;1.5;;
73315;SDS011;61545;53.726;-0.444;2023-08-12T14:16:24;5.0;;;1.4;;
73315;SDS011;61545;53.726;-0.444;2023-08-12T14:21:24;8.8;;;2.1;;
73315;SDS011;61545;53.726;-0.444;2023-08-12T14:26:24;9.1;;;1.9;;
73315;SDS011;61545;53.726;-0.444;2023-08-12T14:31:24;9.1;;;1.9;;
73315;SDS011;61545;53.726;-0.444;2023-08-12T14:36:24;6.5;;;1.7;;
73315;SDS011;61545;53.726;-0.444;2023-08-12T14:41:24;5.5;;;1.6;;
73315;SDS011;61545;53.726;-0.444;2023-08-12T14:46:24;5.6;;;1.7;;
73315;SDS011;61545;53.726;-0.444;2023-08-12T14:51:24;4.1;;;1.5;;
73315;SDS011;61545;53.726;-0.444;2023-08-12T14:56:24;4.8;;;1.8;;
73315;SDS011;61545;53.726;-0.444;2023-08-12T15:01:24;4.8;;;1.8;;
73315;SDS011;61545;53.726;-0.444;2023-08-12T15:06:24;7.2;;;1.8;;
73315;SDS011;61545;53.726;-0.444;2023-08-12T15:11:24;5.0;;;1.5;;
73315;SDS011;61545;53.726;-0.444;2023-08-12T15:16:24;3.1;;;1.4;;
73315;SDS011;61545;53.726;-0.444;2023-08-12T15:21:24;3.4;;;1.4;;
73315;SDS011;61545;53.726;-0.444;2023-08-12T15:26:24;4.6;;;1.3;;
73315;SDS011;61545;53.726;-0.444;2023-08-12T15:31:24;4.6;;;1.3;;
73315;SDS011;61545;53.726;-0.444;2023-08-12T15:36:24;3.7;;;1.1;;
73315;SDS011;61545;53.726;-0.444;2023-08-12T15:41:24;4.6;;;1.7;;
73315;SDS011;61545;53.726;-0.444;2023-08-12T15:46:24;4.1;;;1.5;;
73315;SDS011;61545;53.726;-0.444;2023-08-12T15:51:24;3.0;;;1.1;;
73315;SDS011;61545;53.726;-0.444;2023-08-12T15:56:24;2.9;;;1.1;;
73315;SDS011;61545;53.726;-0.444;2023-08-12T16:01:24;2.9;;;1.1;;
73315;SDS011;61545;53.726;-0.444;2023-08-12T16:06:24;7.5;;;1;;
73315;SDS011;61545;53.726;-0.444;2023-08-12T16:11:24;3.5;;;0.9;;
73315;SDS011;61545;53.726;-0.444;2023-08-12T16:16:24;1.8;;;0.7;;
73315;SDS011;61545;53.726;-0.444;2023-08-12T16:21:24;3.1;;;1.2;;
73315;SDS011;61545;53.726;-0.444;2023-08-12T16:26:24;2.4;;;1.1;;
73315;SDS011;61545;53.726;-0.444;2023-08-12T16:31:25;2.4;;;1.1;;
73315;SDS011;61545;53.726;-0.444;2023-08-12T16:36:25;4.9;;;1.1;;
73315;SDS011;61545;53.726;-0.444;2023-08-12T16:41:24;3.7;;;0.8;;
73315;SDS011;61545;53.726;-0.444;2023-08-12T16:46:24;3.7;;;0.9;;
73315;SDS011;61545;53.726;-0.444;2023-08-12T16:51:26;3.5;;;0.7;;
73315;SDS011;61545;53.726;-0.444;2023-08-12T16:56:24;2.2;;;0.6;;
73315;SDS011;61545;53.726;-0.444;2023-08-12T17:01:24;2.2;;;0.6;;
73315;SDS011;61545;53.726;-0.444;2023-08-12T17:06:24;3.5;;;0.7;;
73315;SDS011;61545;53.726;-0.444;2023-08-12T17:11:24;2.3;;;0.8;;
73315;SDS011;61545;53.726;-0.444;2023-08-12T17:16:24;1.5;;;0.4;;
73315;SDS011;61545;53.726;-0.444;2023-08-12T17:21:24;2.5;;;0.6;;
73315;SDS011;61545;53.726;-0.444;2023-08-12T17:26:24;6.0;;;0.7;;
73315;SDS011;61545;53.726;-0.444;2023-08-12T17:31:24;6.0;;;0.7;;
73315;SDS011;61545;53.726;-0.444;2023-08-12T17:36:24;2.0;;;0.5;;
73315;SDS011;61545;53.726;-0.444;2023-08-12T17:41:24;3.0;;;0.8;;
73315;SDS011;61545;53.726;-0.444;2023-08-12T17:46:24;3.3;;;0.9;;
73315;SDS011;61545;53.726;-0.444;2023-08-12T17:51:24;1.0;;;0.5;;
73315;SDS011;61545;53.726;-0.444;2023-08-12T17:56:24;1.9;;;0.4;;
73315;SDS011;61545;53.726;-0.444;2023-08-12T18:01:24;1.9;;;0.4;;
73315;SDS011;61545;53.726;-0.444;2023-08-12T18:06:24;2.7;;;0.6;;
73315;SDS011;61545;53.726;-0.444;2023-08-12T18:11:24;2.3;;;0.6;;
73315;SDS011;61545;53.726;-0.444;2023-08-12T18:16:24;1.6;;;0.4;;
73315;SDS011;61545;53.726;-0.444;2023-08-12T18:21:24;1.4;;;0.6;;
73315;SDS011;61545;53.726;-0.444;2023-08-12T18:26:24;3.4;;;0.7;;
73315;SDS011;61545;53.726;-0.444;2023-08-12T18:31:24;3.4;;;0.7;;
73315;SDS011;61545;53.726;-0.444;2023-08-12T18:36:24;3.5;;;0.9;;
73315;SDS011;61545;53.726;-0.444;2023-08-12T18:41:24;1.9;;;0.6;;
73315;SDS011;61545;53.726;-0.444;2023-08-12T18:46:24;2.0;;;0.5;;
73315;SDS011;61545;53.726;-0.444;2023-08-12T18:51:24;2.7;;;0.7;;
73315;SDS011;61545;53.726;-0.444;2023-08-12T18:56:24;2.3;;;0.8;;
73315;SDS011;61545;53.726;-0.444;2023-08-12T19:01:24;2.3;;;0.8;;
73315;SDS011;61545;53.726;-0.444;2023-08-12T19:06:24;7.1;;;0.9;;
73315;SDS011;61545;53.726;-0.444;2023-08-12T19:11:24;1.2;;;0.7;;
73315;SDS011;61545;53.726;-0.444;2023-08-12T19:16:24;2.7;;;1;;
73315;SDS011;61545;53.726;-0.444;2023-08-12T19:21:24;2.8;;;0.8;;
73315;SDS011;61545;53.726;-0.444;2023-08-12T19:26:25;1.9;;;0.7;;
73315;SDS011;61545;53.726;-0.444;2023-08-12T19:31:24;1.9;;;0.7;;
73315;SDS011;61545;53.726;-0.444;2023-08-12T19:36:24;3.4;;;0.8;;
73315;SDS011;61545;53.726;-0.444;2023-08-12T19:41:24;3.0;;;0.8;;
73315;SDS011;61545;53.726;-0.444;2023-08-12T19:46:24;3.7;;;1;;
73315;SDS011;61545;53.726;-0.444;2023-08-12T19:51:25;3.3;;;0.9;;
73315;SDS011;61545;53.726;-0.444;2023-08-12T19:56:24;3.3;;;0.9;;
73315;SDS011;61545;53.726;-0.444;2023-08-12T20:01:24;3.6;;;0.8;;
73315;SDS011;61545;53.726;-0.444;2023-08-12T20:06:24;3.4;;;0.9;;
73315;SDS011;61545;53.726;-0.444;2023-08-12T20:11:24;3.7;;;0.9;;
73315;SDS011;61545;53.726;-0.444;2023-08-12T20:16:24;3.6;;;1.1;;
73315;SDS011;61545;53.726;-0.444;2023-08-12T20:21:24;3.4;;;1.2;;
73315;SDS011;61545;53.726;-0.444;2023-08-12T20:26:25;3.4;;;1.2;;
73315;SDS011;61545;53.726;-0.444;2023-08-12T20:31:24;4.6;;;1.2;;
73315;SDS011;61545;53.726;-0.444;2023-08-12T20:36:24;3.9;;;1.2;;
73315;SDS011;61545;53.726;-0.444;2023-08-12T20:41:24;5.5;;;1.5;;
73315;SDS011;61545;53.726;-0.444;2023-08-12T20:46:24;5.9;;;1.4;;
73315;SDS011;61545;53.726;-0.444;2023-08-12T20:51:24;7.8;;;2.1;;
73315;SDS011;61545;53.726;-0.444;2023-08-12T20:56:24;7.8;;;2.1;;
73315;SDS011;61545;53.726;-0.444;2023-08-12T21:01:24;7.1;;;1.7;;
73315;SDS011;61545;53.726;-0.444;2023-08-12T21:06:24;3.4;;;1.3;;
73315;SDS011;61545;53.726;-0.444;2023-08-12T21:11:24;6.9;;;1.5;;
73315;SDS011;61545;53.726;-0.444;2023-08-12T21:16:24;5.2;;;1.2;;
73315;SDS011;61545;53.726;-0.444;2023-08-12T21:21:24;5.5;;;1.5;;
73315;SDS011;61545;53.726;-0.444;2023-08-12T21:26:24;5.5;;;1.5;;
73315;SDS011;61545;53.726;-0.444;2023-08-12T21:31:24;4.5;;;1.1;;
73315;SDS011;61545;53.726;-0.444;2023-08-12T21:36:24;5.5;;;1.4;;
73315;SDS011;61545;53.726;-0.444;2023-08-12T21:41:24;6.6;;;1.7;;
73315;SDS011;61545;53.726;-0.444;2023-08-12T21:46:24;6.7;;;1.7;;
73315;SDS011;61545;53.726;-0.444;2023-08-12T21:51:25;4.2;;;1.4;;
73315;SDS011;61545;53.726;-0.444;2023-08-12T21:56:24;4.2;;;1.4;;
73315;SDS011;61545;53.726;-0.444;2023-08-12T22:01:24;4.9;;;1.5;;
73315;SDS011;61545;53.726;-0.444;2023-08-12T22:06:24;5.9;;;1.7;;
73315;SDS011;61545;53.726;-0.444;2023-08-12T22:11:24;6.6;;;1.4;;
73315;SDS011;61545;53.726;-0.444;2023-08-12T22:16:24;8.8;;;1.8;;
73315;SDS011;61545;53.726;-0.444;2023-08-12T22:21:24;6.8;;;1.4;;
73315;SDS011;61545;53.726;-0.444;2023-08-12T22:26:24;6.8;;;1.4;;
73315;SDS011;61545;53.726;-0.444;2023-08-12T22:31:24;5.7;;;1.4;;
73315;SDS011;61545;53.726;-0.444;2023-08-12T22:36:24;7.5;;;1.8;;
73315;SDS011;61545;53.726;-0.444;2023-08-12T22:41:24;7.2;;;1.6;;
73315;SDS011;61545;53.726;-0.444;2023-08-12T22:46:25;6.2;;;1.6;;
73315;SDS011;61545;53.726;-0.444;2023-08-12T22:51:24;3.9;;;1.4;;
73315;SDS011;61545;53.726;-0.444;2023-08-12T22:56:24;3.9;;;1.4;;
73315;SDS011;61545;53.726;-0.444;2023-08-12T23:01:25;9.8;;;1.7;;
73315;SDS011;61545;53.726;-0.444;2023-08-12T23:06:24;5.0;;;1.7;;
73315;SDS011;61545;53.726;-0.444;2023-08-12T23:11:24;5.1;;;1.5;;
73315;SDS011;61545;53.726;-0.444;2023-08-12T23:16:24;4.7;;;1.8;;
73315;SDS011;61545;53.726;-0.444;2023-08-12T23:21:25;4.6;;;2;;
73315;SDS011;61545;53.726;-0.444;2023-08-12T23:26:24;4.6;;;2;;
73315;SDS011;61545;53.726;-0.444;2023-08-12T23:31:24;6.8;;;2.6;;
73315;SDS011;61545;53.726;-0.444;2023-08-12T23:36:24;6.7;;;1.8;;
73315;SDS011;61545;53.726;-0.444;2023-08-12T23:41:24;5.2;;;1.5;;
73315;SDS011;61545;53.726;-0.444;2023-08-12T23:46:24;4.8;;;1.4;;
73315;SDS011;61545;53.726;-0.444;2023-08-12T23:51:24;4.7;;;1.3;;
73315;SDS011;61545;53.726;-0.444;2023-08-12T23:56:24;4.7;;;1.3;;
